SWR12E EDDS-EDDC
Flight info
| Callsign | SWR12E |
|---|---|
| Flight time | 0h 51m |
| Altitude | 23000 |
| Route | DKB4H DKB N869 AMOSA/N0441F270 N869 ANELA/N0416F230 Z715 KULOK/N0458F310 Z715 ABKIS Q240 DRN |
| Aircraft | A320/M-SDE3FGHIRWY/LB1 |
Departure
| Time | 2026-04-30 21:32 |
|---|---|
| Airport | Stuttgart Airport (EDDS) |
Arrival
| Time | 2026-04-30 22:23 |
|---|---|
| Airport | Dresden Airport (EDDC) |
| Time | Latitude | Longitude | Altitude | Speed | Heading |
|---|---|---|---|---|---|
| 2026-04-30 21:20 | 48.68911 | 9.19514 | 1290 ft | 0 kts | 343° |
| 2026-04-30 21:22 | 48.68910 | 9.19514 | 1290 ft | 0 kts | 343° |
| 2026-04-30 21:27 | 48.68906 | 9.19516 | 1285 ft | 2 kts | 343° |
| 2026-04-30 21:27 | 48.68889 | 9.19523 | 1286 ft | 2 kts | 343° |
| 2026-04-30 21:28 | 48.68856 | 9.19539 | 1288 ft | 2 kts | 3° |
| 2026-04-30 21:28 | 48.68842 | 9.19530 | 1289 ft | 1 kts | 70° |
| 2026-04-30 21:29 | 48.68843 | 9.19545 | 1289 ft | 6 kts | 82° |
| 2026-04-30 21:29 | 48.68788 | 9.19939 | 1290 ft | 19 kts | 151° |
| 2026-04-30 21:30 | 48.68707 | 9.19976 | 1287 ft | 0 kts | 173° |
| 2026-04-30 21:31 | 48.68608 | 9.20071 | 1290 ft | 12 kts | 118° |
| 2026-04-30 21:31 | 48.68641 | 9.20375 | 1286 ft | 32 kts | 73° |
| 2026-04-30 21:32 | 48.69019 | 9.22429 | 1410 ft | 143 kts | 75° |
| 2026-04-30 21:32 | 48.69261 | 9.23910 | 1892 ft | 151 kts | 76° |
| 2026-04-30 21:32 | 48.69543 | 9.25528 | 2346 ft | 170 kts | 77° |
| 2026-04-30 21:32 | 48.69888 | 9.27427 | 2590 ft | 200 kts | 78° |
| 2026-04-30 21:33 | 48.70228 | 9.29440 | 2770 ft | 196 kts | 79° |
| 2026-04-30 21:33 | 48.70900 | 9.33317 | 3801 ft | 188 kts | 79° |
| 2026-04-30 21:33 | 48.71251 | 9.35244 | 4426 ft | 192 kts | 79° |
| 2026-04-30 21:34 | 48.71598 | 9.37223 | 5097 ft | 197 kts | 79° |
| 2026-04-30 21:34 | 48.72269 | 9.41344 | 6376 ft | 205 kts | 78° |
| 2026-04-30 21:34 | 48.72589 | 9.43474 | 7008 ft | 209 kts | 79° |
| 2026-04-30 21:35 | 48.72900 | 9.45638 | 7623 ft | 212 kts | 79° |
| 2026-04-30 21:35 | 48.73212 | 9.47824 | 8245 ft | 213 kts | 79° |
| 2026-04-30 21:35 | 48.73528 | 9.50036 | 8883 ft | 216 kts | 79° |
| 2026-04-30 21:35 | 48.73846 | 9.52271 | 9530 ft | 218 kts | 79° |
| 2026-04-30 21:36 | 48.74167 | 9.54528 | 10204 ft | 220 kts | 79° |
| 2026-04-30 21:36 | 48.74486 | 9.56783 | 10788 ft | 222 kts | 79° |
| 2026-04-30 21:37 | 48.75425 | 9.63741 | 12657 ft | 226 kts | 78° |
| 2026-04-30 21:37 | 48.75721 | 9.66129 | 13324 ft | 236 kts | 79° |
| 2026-04-30 21:37 | 48.76161 | 9.68563 | 13978 ft | 245 kts | 63° |
| 2026-04-30 21:37 | 48.77227 | 9.70627 | 14601 ft | 255 kts | 45° |
| 2026-04-30 21:38 | 48.78535 | 9.72526 | 15205 ft | 265 kts | 45° |
| 2026-04-30 21:38 | 48.79896 | 9.74487 | 15824 ft | 274 kts | 44° |
| 2026-04-30 21:38 | 48.81305 | 9.76512 | 16456 ft | 283 kts | 44° |
| 2026-04-30 21:38 | 48.82752 | 9.78590 | 17100 ft | 291 kts | 44° |
| 2026-04-30 21:39 | 48.84238 | 9.80731 | 17751 ft | 298 kts | 44° |
| 2026-04-30 21:39 | 48.85757 | 9.82923 | 18425 ft | 304 kts | 44° |
| 2026-04-30 21:39 | 48.87305 | 9.85159 | 19050 ft | 310 kts | 44° |
| 2026-04-30 21:39 | 48.88346 | 9.86665 | 19442 ft | 314 kts | 44° |
| 2026-04-30 21:40 | 48.89940 | 9.88972 | 20044 ft | 319 kts | 44° |
| 2026-04-30 21:40 | 48.91587 | 9.91357 | 20296 ft | 337 kts | 44° |
| 2026-04-30 21:40 | 48.93333 | 9.93888 | 20356 ft | 358 kts | 44° |
| 2026-04-30 21:40 | 48.95175 | 9.96569 | 20362 ft | 372 kts | 44° |
| 2026-04-30 21:41 | 48.97057 | 9.99310 | 20363 ft | 376 kts | 44° |
| 2026-04-30 21:41 | 48.98947 | 10.02067 | 20361 ft | 376 kts | 44° |
| 2026-04-30 21:41 | 49.00827 | 10.04812 | 20365 ft | 376 kts | 44° |
| 2026-04-30 21:41 | 49.02726 | 10.07585 | 20365 ft | 376 kts | 44° |
| 2026-04-30 21:42 | 49.04615 | 10.10347 | 20373 ft | 376 kts | 44° |
| 2026-04-30 21:42 | 49.06505 | 10.13113 | 20377 ft | 376 kts | 44° |
| 2026-04-30 21:42 | 49.08391 | 10.15880 | 20375 ft | 376 kts | 44° |
| 2026-04-30 21:42 | 49.10276 | 10.18647 | 20383 ft | 376 kts | 44° |
| 2026-04-30 21:43 | 49.12162 | 10.21415 | 20400 ft | 375 kts | 44° |
| 2026-04-30 21:43 | 49.14039 | 10.24174 | 20392 ft | 374 kts | 44° |
| 2026-04-30 21:43 | 49.15911 | 10.26930 | 20396 ft | 374 kts | 44° |
| 2026-04-30 21:43 | 49.17785 | 10.29691 | 20404 ft | 374 kts | 44° |
| 2026-04-30 21:44 | 49.19632 | 10.32420 | 20428 ft | 374 kts | 44° |
| 2026-04-30 21:44 | 49.21503 | 10.35185 | 20429 ft | 374 kts | 44° |
| 2026-04-30 21:44 | 49.23396 | 10.37983 | 20410 ft | 374 kts | 44° |
| 2026-04-30 21:44 | 49.25258 | 10.40760 | 20411 ft | 374 kts | 45° |
| 2026-04-30 21:45 | 49.27104 | 10.43566 | 20408 ft | 374 kts | 45° |
| 2026-04-30 21:45 | 49.28917 | 10.46347 | 20402 ft | 373 kts | 46° |
| 2026-04-30 21:45 | 49.30749 | 10.49168 | 20402 ft | 373 kts | 46° |
| 2026-04-30 21:45 | 49.32581 | 10.51987 | 20401 ft | 373 kts | 46° |
| 2026-04-30 21:46 | 49.34413 | 10.54805 | 20401 ft | 373 kts | 46° |
| 2026-04-30 21:46 | 49.36235 | 10.57640 | 20401 ft | 373 kts | 46° |
| 2026-04-30 21:46 | 49.38026 | 10.60517 | 20401 ft | 373 kts | 47° |
| 2026-04-30 21:46 | 49.39805 | 10.63425 | 20400 ft | 373 kts | 47° |
| 2026-04-30 21:47 | 49.41576 | 10.66334 | 20402 ft | 373 kts | 47° |
| 2026-04-30 21:47 | 49.43364 | 10.69226 | 20408 ft | 373 kts | 46° |
| 2026-04-30 21:47 | 49.45171 | 10.72091 | 20412 ft | 373 kts | 46° |
| 2026-04-30 21:47 | 49.46987 | 10.74940 | 20415 ft | 373 kts | 46° |
| 2026-04-30 21:48 | 49.48802 | 10.77781 | 20429 ft | 372 kts | 46° |
| 2026-04-30 21:48 | 49.50610 | 10.80617 | 20444 ft | 371 kts | 46° |
| 2026-04-30 21:48 | 49.52331 | 10.83324 | 20424 ft | 370 kts | 46° |
| 2026-04-30 21:48 | 49.54104 | 10.86122 | 20422 ft | 369 kts | 46° |
| 2026-04-30 21:49 | 49.55895 | 10.88956 | 20425 ft | 369 kts | 46° |
| 2026-04-30 21:49 | 49.57686 | 10.91793 | 20420 ft | 369 kts | 46° |
| 2026-04-30 21:49 | 49.59473 | 10.94629 | 20420 ft | 369 kts | 46° |
| 2026-04-30 21:49 | 49.61258 | 10.97472 | 20420 ft | 369 kts | 46° |
| 2026-04-30 21:50 | 49.63043 | 11.00320 | 20419 ft | 369 kts | 46° |
| 2026-04-30 21:50 | 49.64827 | 11.03166 | 20427 ft | 369 kts | 46° |
| 2026-04-30 21:50 | 49.66612 | 11.06014 | 20423 ft | 369 kts | 46° |
| 2026-04-30 21:50 | 49.68394 | 11.08858 | 20430 ft | 368 kts | 47° |
| 2026-04-30 21:51 | 49.70170 | 11.11691 | 20433 ft | 367 kts | 47° |
| 2026-04-30 21:51 | 49.71946 | 11.14531 | 20436 ft | 367 kts | 47° |
| 2026-04-30 21:51 | 49.73714 | 11.17370 | 20439 ft | 367 kts | 47° |
| 2026-04-30 21:51 | 49.75484 | 11.20215 | 20442 ft | 367 kts | 47° |
| 2026-04-30 21:52 | 49.77330 | 11.22939 | 20443 ft | 368 kts | 40° |
| 2026-04-30 21:52 | 49.79389 | 11.25289 | 20460 ft | 368 kts | 38° |
| 2026-04-30 21:52 | 49.81464 | 11.27625 | 20458 ft | 368 kts | 38° |
| 2026-04-30 21:52 | 49.83533 | 11.29960 | 20463 ft | 368 kts | 38° |
| 2026-04-30 21:53 | 49.85601 | 11.32303 | 20463 ft | 368 kts | 38° |
| 2026-04-30 21:53 | 49.87665 | 11.34646 | 20463 ft | 368 kts | 38° |
| 2026-04-30 21:53 | 49.89705 | 11.37026 | 20465 ft | 367 kts | 43° |
| 2026-04-30 21:53 | 49.91434 | 11.39922 | 20470 ft | 366 kts | 50° |
| 2026-04-30 21:54 | 49.93061 | 11.42888 | 20488 ft | 366 kts | 50° |
| 2026-04-30 21:54 | 49.94707 | 11.45898 | 20470 ft | 365 kts | 50° |
| 2026-04-30 21:54 | 49.96365 | 11.48936 | 20301 ft | 376 kts | 50° |
| 2026-04-30 21:54 | 49.98069 | 11.52061 | 19905 ft | 381 kts | 50° |
| 2026-04-30 21:55 | 49.99777 | 11.55203 | 19523 ft | 381 kts | 50° |
| 2026-04-30 21:55 | 50.01484 | 11.58353 | 19139 ft | 380 kts | 50° |
| 2026-04-30 21:55 | 50.03180 | 11.61485 | 18771 ft | 378 kts | 50° |
| 2026-04-30 21:55 | 50.04869 | 11.64611 | 18333 ft | 377 kts | 50° |
| 2026-04-30 21:56 | 50.06551 | 11.67726 | 17888 ft | 374 kts | 50° |
| 2026-04-30 21:56 | 50.08216 | 11.70809 | 17471 ft | 371 kts | 50° |
| 2026-04-30 21:56 | 50.09871 | 11.73873 | 17053 ft | 369 kts | 50° |
| 2026-04-30 21:56 | 50.11521 | 11.76929 | 16636 ft | 368 kts | 50° |
| 2026-04-30 21:57 | 50.13158 | 11.79977 | 16234 ft | 367 kts | 50° |
| 2026-04-30 21:57 | 50.14792 | 11.83029 | 15834 ft | 366 kts | 50° |
| 2026-04-30 21:57 | 50.16421 | 11.86071 | 15439 ft | 365 kts | 50° |
| 2026-04-30 21:57 | 50.18047 | 11.89103 | 15045 ft | 364 kts | 50° |
| 2026-04-30 21:58 | 50.19673 | 11.92135 | 14664 ft | 364 kts | 50° |
| 2026-04-30 21:58 | 50.21295 | 11.95161 | 14286 ft | 363 kts | 50° |
| 2026-04-30 21:58 | 50.22909 | 11.98174 | 13865 ft | 362 kts | 50° |
| 2026-04-30 21:58 | 50.24520 | 12.01191 | 13442 ft | 360 kts | 50° |
| 2026-04-30 21:59 | 50.26117 | 12.04193 | 13032 ft | 358 kts | 50° |
| 2026-04-30 21:59 | 50.27707 | 12.07178 | 12621 ft | 356 kts | 50° |
| 2026-04-30 21:59 | 50.29289 | 12.10150 | 12210 ft | 355 kts | 50° |
| 2026-04-30 22:00 | 50.32400 | 12.16017 | 11495 ft | 350 kts | 51° |
| 2026-04-30 22:00 | 50.35241 | 12.22192 | 11470 ft | 351 kts | 60° |
| 2026-04-30 22:00 | 50.36379 | 12.25568 | 11470 ft | 351 kts | 62° |
| 2026-04-30 22:01 | 50.37513 | 12.28946 | 11475 ft | 351 kts | 62° |
| 2026-04-30 22:01 | 50.38651 | 12.32332 | 11473 ft | 351 kts | 62° |
| 2026-04-30 22:01 | 50.39790 | 12.35717 | 11474 ft | 351 kts | 62° |
| 2026-04-30 22:01 | 50.40929 | 12.39105 | 11472 ft | 351 kts | 62° |
| 2026-04-30 22:02 | 50.42066 | 12.42491 | 11472 ft | 351 kts | 62° |
| 2026-04-30 22:02 | 50.43206 | 12.45893 | 11476 ft | 358 kts | 62° |
| 2026-04-30 22:02 | 50.44414 | 12.49505 | 11479 ft | 390 kts | 62° |
| 2026-04-30 22:02 | 50.45691 | 12.53333 | 12217 ft | 394 kts | 60° |
| 2026-04-30 22:03 | 50.46948 | 12.57180 | 13142 ft | 397 kts | 62° |
| 2026-04-30 22:03 | 50.48214 | 12.61058 | 14022 ft | 401 kts | 62° |
| 2026-04-30 22:03 | 50.49483 | 12.64953 | 14935 ft | 401 kts | 62° |
| 2026-04-30 22:03 | 50.50768 | 12.68907 | 15252 ft | 412 kts | 62° |
| 2026-04-30 22:04 | 50.52029 | 12.72794 | 15732 ft | 388 kts | 62° |
| 2026-04-30 22:04 | 50.53245 | 12.76546 | 15939 ft | 388 kts | 62° |
| 2026-04-30 22:04 | 50.55776 | 12.84362 | 15328 ft | 408 kts | 62° |
| 2026-04-30 22:05 | 50.57077 | 12.88276 | 15173 ft | 392 kts | 58° |
| 2026-04-30 22:05 | 50.58702 | 12.91482 | 14815 ft | 361 kts | 44° |
| 2026-04-30 22:05 | 50.60450 | 12.94056 | 14464 ft | 339 kts | 43° |
| 2026-04-30 22:05 | 50.62140 | 12.96585 | 14074 ft | 330 kts | 44° |
| 2026-04-30 22:06 | 50.63785 | 12.99070 | 13680 ft | 327 kts | 44° |
| 2026-04-30 22:06 | 50.66996 | 13.03931 | 12746 ft | 320 kts | 44° |
| 2026-04-30 22:06 | 50.68598 | 13.06355 | 12283 ft | 318 kts | 44° |
| 2026-04-30 22:07 | 50.70187 | 13.08763 | 11822 ft | 316 kts | 44° |
| 2026-04-30 22:07 | 50.71767 | 13.11162 | 11381 ft | 314 kts | 44° |
| 2026-04-30 22:07 | 50.73339 | 13.13556 | 10944 ft | 314 kts | 45° |
| 2026-04-30 22:07 | 50.74906 | 13.15938 | 10508 ft | 311 kts | 44° |
| 2026-04-30 22:08 | 50.75690 | 13.17127 | 10286 ft | 310 kts | 45° |
| 2026-04-30 22:08 | 50.75999 | 13.17596 | 10191 ft | 309 kts | 45° |
| 2026-04-30 22:08 | 50.77547 | 13.19950 | 9708 ft | 308 kts | 45° |
| 2026-04-30 22:08 | 50.79088 | 13.22286 | 9236 ft | 306 kts | 45° |
| 2026-04-30 22:09 | 50.80619 | 13.24609 | 8774 ft | 304 kts | 45° |
| 2026-04-30 22:09 | 50.82141 | 13.26925 | 8307 ft | 303 kts | 45° |
| 2026-04-30 22:09 | 50.83658 | 13.29236 | 7852 ft | 302 kts | 45° |
| 2026-04-30 22:09 | 50.85166 | 13.31536 | 7405 ft | 301 kts | 45° |
| 2026-04-30 22:10 | 50.86673 | 13.33838 | 6954 ft | 301 kts | 45° |
| 2026-04-30 22:10 | 50.88128 | 13.36057 | 6510 ft | 298 kts | 45° |
| 2026-04-30 22:10 | 50.89648 | 13.38382 | 6036 ft | 292 kts | 45° |
| 2026-04-30 22:10 | 50.91094 | 13.40598 | 5568 ft | 286 kts | 45° |
| 2026-04-30 22:11 | 50.93881 | 13.44865 | 4640 ft | 275 kts | 45° |
| 2026-04-30 22:11 | 50.95194 | 13.46880 | 4449 ft | 248 kts | 45° |
| 2026-04-30 22:11 | 50.96358 | 13.48665 | 4442 ft | 218 kts | 45° |
| 2026-04-30 22:12 | 50.97384 | 13.50240 | 4451 ft | 194 kts | 45° |
| 2026-04-30 22:12 | 50.98261 | 13.51710 | 4541 ft | 169 kts | 59° |
| 2026-04-30 22:12 | 50.98728 | 13.53374 | 4583 ft | 179 kts | 70° |
| 2026-04-30 22:12 | 50.99305 | 13.55294 | 4493 ft | 205 kts | 60° |
| 2026-04-30 22:13 | 51.00258 | 13.57044 | 4578 ft | 214 kts | 40° |
| 2026-04-30 22:13 | 51.01535 | 13.58288 | 4758 ft | 216 kts | 32° |
| 2026-04-30 22:13 | 51.02826 | 13.59494 | 4983 ft | 215 kts | 33° |
| 2026-04-30 22:13 | 51.04149 | 13.60684 | 5057 ft | 221 kts | 31° |
| 2026-04-30 22:14 | 51.05436 | 13.61996 | 5222 ft | 220 kts | 37° |
| 2026-04-30 22:14 | 51.06725 | 13.63379 | 5081 ft | 233 kts | 31° |
| 2026-04-30 22:14 | 51.08100 | 13.64707 | 5235 ft | 229 kts | 34° |
| 2026-04-30 22:14 | 51.09428 | 13.66063 | 5033 ft | 225 kts | 35° |
| 2026-04-30 22:15 | 51.10749 | 13.67491 | 4271 ft | 235 kts | 36° |
| 2026-04-30 22:15 | 51.12085 | 13.68892 | 3562 ft | 221 kts | 31° |
| 2026-04-30 22:15 | 51.13336 | 13.70120 | 3193 ft | 202 kts | 36° |
| 2026-04-30 22:15 | 51.14406 | 13.71414 | 2997 ft | 186 kts | 39° |
| 2026-04-30 22:16 | 51.15364 | 13.72682 | 2824 ft | 173 kts | 41° |
| 2026-04-30 22:16 | 51.16235 | 13.73927 | 2653 ft | 164 kts | 44° |
| 2026-04-30 22:17 | 51.18683 | 13.77212 | 2436 ft | 146 kts | 37° |
| 2026-04-30 22:17 | 51.19464 | 13.78196 | 2411 ft | 141 kts | 42° |
| 2026-04-30 22:17 | 51.20857 | 13.80261 | 2714 ft | 140 kts | 44° |
| 2026-04-30 22:18 | 51.21567 | 13.81349 | 2962 ft | 145 kts | 45° |
| 2026-04-30 22:18 | 51.23032 | 13.83699 | 3380 ft | 152 kts | 45° |
| 2026-04-30 22:19 | 51.24510 | 13.86133 | 3813 ft | 153 kts | 46° |
| 2026-04-30 22:19 | 51.25181 | 13.87420 | 4167 ft | 144 kts | 64° |
| 2026-04-30 22:19 | 51.24387 | 13.89908 | 4536 ft | 155 kts | 162° |
| 2026-04-30 22:20 | 51.23320 | 13.89640 | 4505 ft | 166 kts | 196° |
| 2026-04-30 22:20 | 51.20903 | 13.88066 | 3710 ft | 194 kts | 212° |
| 2026-04-30 22:20 | 51.20125 | 13.86421 | 3251 ft | 182 kts | 244° |
| 2026-04-30 22:21 | 51.19362 | 13.84889 | 2793 ft | 175 kts | 216° |
| 2026-04-30 22:21 | 51.18426 | 13.83695 | 2342 ft | 170 kts | 220° |
| 2026-04-30 22:21 | 51.17544 | 13.82474 | 1866 ft | 166 kts | 220° |
| 2026-04-30 22:21 | 51.16682 | 13.81283 | 1422 ft | 161 kts | 220° |
| 2026-04-30 22:22 | 51.15865 | 13.80154 | 1191 ft | 152 kts | 221° |
| 2026-04-30 22:22 | 51.15076 | 13.79066 | 992 ft | 148 kts | 221° |
| 2026-04-30 22:22 | 51.14303 | 13.78000 | 787 ft | 146 kts | 221° |
| 2026-04-30 22:22 | 51.13567 | 13.76983 | 731 ft | 126 kts | 221° |
| 2026-04-30 22:23 | 51.13131 | 13.76359 | 750 ft | 51 kts | 222° |
| 2026-04-30 22:23 | 51.12983 | 13.76159 | 748 ft | 14 kts | 218° |
| 2026-04-30 22:23 | 51.12913 | 13.76069 | 750 ft | 14 kts | 219° |
| 2026-04-30 22:23 | 51.12837 | 13.75968 | 753 ft | 14 kts | 220° |
| 2026-04-30 22:24 | 51.12767 | 13.75876 | 755 ft | 13 kts | 213° |
| 2026-04-30 22:24 | 51.12686 | 13.75859 | 755 ft | 12 kts | 147° |
| 2026-04-30 22:24 | 51.12627 | 13.75964 | 754 ft | 13 kts | 131° |
| 2026-04-30 22:24 | 51.12584 | 13.76080 | 755 ft | 11 kts | 93° |
| 2026-04-30 22:25 | 51.12628 | 13.76169 | 752 ft | 11 kts | 41° |
| 2026-04-30 22:25 | 51.12684 | 13.76248 | 752 ft | 10 kts | 41° |
| 2026-04-30 22:25 | 51.12722 | 13.76301 | 747 ft | 11 kts | 41° |
| 2026-04-30 22:25 | 51.12776 | 13.76386 | 749 ft | 10 kts | 64° |
| 2026-04-30 22:26 | 51.12762 | 13.76515 | 751 ft | 0 kts | 126° |
| 2026-04-30 22:26 | 51.12750 | 13.76534 | 751 ft | 4 kts | 132° |
| 2026-04-30 22:27 | 51.12710 | 13.76604 | 751 ft | 12 kts | 133° |
| 2026-04-30 22:27 | 51.12655 | 13.76671 | 754 ft | 2 kts | 181° |
| 2026-04-30 22:27 | 51.12632 | 13.76655 | 755 ft | 6 kts | 215° |